Time;durP1;ratioP1;P1;durP2;ratioP2;P2;SDS_P1;SDS_P2;PMS_P1;PMS_P2;Temp;Humidity;BMP_temperature;BMP_pressure;BME280_temperature;BME280_humidity;BME280_pressure;Samples;Min_cycle;Max_cycle;Signal;HPM_P1;HPM_P2
2021/06/14 00:01:25;;;;;;;58.50;2.43;;;15.50;1.00;;;;;;5014425;28;20568;-67
2021/06/14 00:03:52;;;;;;;58.10;2.60;;;15.50;1.00;;;;;;5013852;28;20489;-66
2021/06/14 00:06:19;;;;;;;58.50;2.57;;;15.50;1.00;;;;;;5013691;28;20463;-66
2021/06/14 00:08:46;;;;;;;58.40;2.60;;;15.40;1.00;;;;;;5013825;28;20474;-66
2021/06/14 00:11:13;;;;;;;58.70;3.10;;;15.40;1.00;;;;;;5013952;28;20571;-67
2021/06/14 00:13:41;;;;;;;58.70;3.23;;;15.40;1.00;;;;;;5013714;28;20533;-67
2021/06/14 00:16:09;;;;;;;58.10;2.90;;;15.40;1.00;;;;;;5013351;28;21049;-67
2021/06/14 00:18:38;;;;;;;58.43;2.70;;;15.30;1.00;;;;;;5013563;28;20466;-67
2021/06/14 00:21:07;;;;;;;58.40;2.60;;;15.20;1.00;;;;;;5013438;28;21000;-67
2021/06/14 00:23:35;;;;;;;58.27;2.60;;;15.20;1.00;;;;;;5013668;28;20468;-67
2021/06/14 00:26:04;;;;;;;58.47;2.60;;;15.20;1.00;;;;;;5013512;28;20891;-68
2021/06/14 00:28:31;;;;;;;59.50;4.00;;;15.10;1.00;;;;;;5013320;28;20476;-68
2021/06/14 00:30:58;;;;;;;57.97;2.90;;;15.10;1.00;;;;;;5013398;28;20453;-67
2021/06/14 00:33:25;;;;;;;58.30;2.60;;;15.10;1.00;;;;;;5013273;28;20536;-67
2021/06/14 00:35:53;;;;;;;58.37;2.50;;;15.10;1.00;;;;;;5013306;28;20529;-68
2021/06/14 00:38:21;;;;;;;58.50;2.90;;;15.10;1.00;;;;;;5013169;28;20477;-67
2021/06/14 00:40:48;;;;;;;58.17;2.60;;;15.20;1.00;;;;;;5013308;28;20460;-67
2021/06/14 00:43:16;;;;;;;58.37;2.53;;;15.20;1.00;;;;;;5013146;28;20861;-66
2021/06/14 00:45:45;;;;;;;58.17;2.40;;;15.20;1.00;;;;;;5013205;28;20552;-67
2021/06/14 00:48:13;;;;;;;58.17;2.60;;;15.20;1.00;;;;;;5012649;28;20552;-65
2021/06/14 00:50:43;;;;;;;59.10;3.50;;;15.20;1.00;;;;;;5013130;28;20536;-67
2021/06/14 00:53:14;;;;;;;57.77;2.53;;;15.20;1.00;;;;;;5013246;28;20446;-67
2021/06/14 00:55:41;;;;;;;58.90;2.50;;;15.20;1.00;;;;;;5013057;28;20548;-67
2021/06/14 00:58:08;;;;;;;58.50;2.70;;;15.20;1.00;;;;;;5012798;28;20501;-67
2021/06/14 01:00:35;;;;;;;58.90;3.53;;;15.10;1.00;;;;;;5012638;28;20489;-67
2021/06/14 01:03:02;;;;;;;58.77;2.70;;;15.10;1.00;;;;;;5012649;28;20518;-68
2021/06/14 01:05:31;;;;;;;58.50;2.50;;;15.00;1.00;;;;;;5013034;28;20810;-67
2021/06/14 01:07:58;;;;;;;58.13;2.50;;;14.90;1.00;;;;;;5012631;28;20524;-67
2021/06/14 01:10:26;;;;;;;58.27;2.50;;;14.90;1.00;;;;;;5012670;28;20567;-67
2021/06/14 01:13:07;;;;;;;58.20;2.90;;;14.90;1.00;;;;;;5012830;28;20536;-68
2021/06/14 01:15:41;;;;;;;58.70;2.73;;;14.90;1.00;;;;;;5012865;28;20507;-67
2021/06/14 01:18:12;;;;;;;58.13;2.60;;;14.90;1.00;;;;;;5012318;28;20551;-67
2021/06/14 01:20:59;;;;;;;58.07;2.30;;;14.90;1.00;;;;;;5012592;28;20445;-68
2021/06/14 01:23:56;;;;;;;58.07;2.70;;;14.90;1.00;;;;;;5012363;28;20569;-67
2021/06/14 01:26:26;;;;;;;58.43;2.50;;;14.90;1.00;;;;;;5012354;28;20454;-67
2021/06/14 01:28:59;;;;;;;58.13;2.50;;;14.90;1.00;;;;;;5012480;28;20465;-67
2021/06/14 01:31:31;;;;;;;58.33;2.50;;;14.80;1.00;;;;;;5012430;28;20540;-67
2021/06/14 01:33:58;;;;;;;57.70;2.40;;;14.80;1.00;;;;;;5012423;28;20542;-68
2021/06/14 01:36:27;;;;;;;58.37;2.50;;;14.80;1.00;;;;;;5012118;28;20544;-68
2021/06/14 01:38:56;;;;;;;58.07;2.73;;;14.70;1.00;;;;;;5012212;28;20901;-68
2021/06/14 01:41:25;;;;;;;58.07;2.60;;;14.60;1.00;;;;;;5012285;28;20533;-68
2021/06/14 01:43:52;;;;;;;59.00;3.50;;;14.60;1.00;;;;;;5011805;28;20592;-68
2021/06/14 01:46:24;;;;;;;58.37;2.73;;;14.60;1.00;;;;;;5012205;28;20536;-68
2021/06/14 01:48:52;;;;;;;58.13;2.60;;;14.60;1.00;;;;;;5011912;28;20556;-68
2021/06/14 01:51:22;;;;;;;58.70;2.80;;;14.60;1.00;;;;;;5012056;28;20453;-68
2021/06/14 01:54:03;;;;;;;59.17;3.23;;;14.50;1.00;;;;;;5012486;28;20450;-68
2021/06/14 01:56:31;;;;;;;58.57;3.03;;;14.50;1.00;;;;;;5012201;28;20544;-68
2021/06/14 01:59:00;;;;;;;59.10;2.87;;;14.50;1.00;;;;;;5011682;28;20946;-67
2021/06/14 02:01:29;;;;;;;58.23;2.80;;;14.50;1.00;;;;;;5012192;28;20445;-67
2021/06/14 02:03:56;;;;;;;58.33;2.50;;;14.40;1.00;;;;;;5012042;28;20858;-68
2021/06/14 02:06:25;;;;;;;59.07;3.03;;;14.40;1.00;;;;;;5011895;28;20822;-67
2021/06/14 02:08:52;;;;;;;59.27;3.07;;;14.40;1.00;;;;;;5011743;28;21049;-67
2021/06/14 02:11:20;;;;;;;58.37;2.73;;;14.30;1.00;;;;;;5011921;28;20808;-68
2021/06/14 02:13:48;;;;;;;59.40;3.00;;;14.30;1.00;;;;;;5011925;28;20485;-67
2021/06/14 02:16:16;;;;;;;58.43;2.70;;;14.30;1.00;;;;;;5011663;28;20449;-67
2021/06/14 02:18:44;;;;;;;58.17;2.57;;;14.20;1.00;;;;;;5011909;28;20469;-66
2021/06/14 02:21:11;;;;;;;58.43;2.70;;;14.10;1.00;;;;;;5011968;28;21026;-67
2021/06/14 02:23:38;;;;;;;58.37;2.70;;;14.10;1.00;;;;;;5012020;28;20554;-68
2021/06/14 02:26:05;;;;;;;58.43;2.70;;;14.10;1.00;;;;;;5011846;28;20532;-67
2021/06/14 02:28:32;;;;;;;58.30;2.80;;;14.10;1.00;;;;;;5011609;28;20470;-67
2021/06/14 02:31:00;;;;;;;58.60;2.80;;;14.20;1.00;;;;;;5012004;28;20482;-66
2021/06/14 02:33:27;;;;;;;58.27;2.90;;;14.20;1.00;;;;;;5011907;28;20446;-68
2021/06/14 02:35:55;;;;;;;58.40;2.70;;;14.20;1.00;;;;;;5011678;28;20549;-67
2021/06/14 02:38:23;;;;;;;58.23;2.70;;;14.20;1.00;;;;;;5011284;28;20485;-68
2021/06/14 02:40:51;;;;;;;58.27;2.70;;;14.20;1.00;;;;;;5011657;28;20958;-67
2021/06/14 02:43:21;;;;;;;58.33;2.80;;;14.20;1.00;;;;;;5011538;28;20485;-67
2021/06/14 02:45:49;;;;;;;58.67;3.10;;;14.20;1.00;;;;;;5011528;28;20969;-67
2021/06/14 02:48:17;;;;;;;58.37;2.90;;;14.20;1.00;;;;;;5011307;28;20815;-68
2021/06/14 02:50:45;;;;;;;58.33;2.60;;;14.20;1.00;;;;;;5011557;28;20481;-68
2021/06/14 02:53:15;;;;;;;58.90;3.10;;;14.20;1.00;;;;;;5011730;28;20473;-68
2021/06/14 02:55:50;;;;;;;58.50;2.90;;;14.10;1.00;;;;;;5013433;28;20450;-67
2021/06/14 02:58:26;;;;;;;58.33;2.60;;;14.20;1.00;;;;;;5014862;28;20473;-68
2021/06/14 03:00:53;;;;;;;57.87;2.60;;;14.20;1.00;;;;;;5015243;28;20453;-67
2021/06/14 03:03:21;;;;;;;58.27;2.77;;;14.10;1.00;;;;;;5014946;28;20572;-67
2021/06/14 03:05:48;;;;;;;58.27;2.80;;;14.10;1.00;;;;;;5014752;28;20450;-67
2021/06/14 03:08:18;;;;;;;58.37;2.80;;;14.00;1.00;;;;;;5014499;28;20982;-68
2021/06/14 03:10:45;;;;;;;58.30;2.70;;;13.90;1.00;;;;;;5015036;28;20450;-68
2021/06/14 03:13:13;;;;;;;58.37;2.70;;;13.90;1.00;;;;;;5014942;28;20446;-68
2021/06/14 03:15:41;;;;;;;58.50;2.80;;;13.90;1.00;;;;;;5014866;28;20811;-68
2021/06/14 03:18:09;;;;;;;58.60;3.37;;;13.90;1.00;;;;;;5014366;28;20480;-68
2021/06/14 03:20:39;;;;;;;58.70;3.00;;;13.90;1.00;;;;;;5014914;28;20545;-68
2021/06/14 03:23:06;;;;;;;59.00;3.43;;;13.90;1.00;;;;;;5014925;28;20477;-68
2021/06/14 03:25:35;;;;;;;59.43;3.07;;;13.90;1.00;;;;;;5014626;28;20450;-68
2021/06/14 03:28:05;;;;;;;58.27;2.60;;;13.90;1.00;;;;;;5014397;28;20837;-68
2021/06/14 03:30:33;;;;;;;58.33;2.57;;;13.80;1.00;;;;;;5014496;28;21022;-68
2021/06/14 03:33:02;;;;;;;58.13;2.80;;;13.80;1.00;;;;;;5014356;28;20542;-68
2021/06/14 03:35:29;;;;;;;58.17;2.57;;;13.70;1.00;;;;;;5014551;28;20548;-67
2021/06/14 03:37:56;;;;;;;58.33;2.40;;;13.70;1.00;;;;;;5014297;28;20462;-68
2021/06/14 03:40:23;;;;;;;58.33;2.80;;;13.80;1.00;;;;;;5014365;28;20485;-67
2021/06/14 03:42:59;;;;;;;58.57;2.80;;;13.70;1.00;;;;;;5014221;28;20488;-68
2021/06/14 03:45:28;;;;;;;58.00;2.80;;;13.70;1.00;;;;;;5014188;28;20456;-67
2021/06/14 03:47:54;;;;;;;58.50;2.93;;;13.70;1.00;;;;;;5014090;28;20453;-68
2021/06/14 03:50:21;;;;;;;60.20;3.13;;;13.80;1.00;;;;;;5013920;28;20446;-68
2021/06/14 03:52:48;;;;;;;59.00;2.70;;;13.80;1.00;;;;;;5014189;28;20544;-67
2021/06/14 03:55:15;;;;;;;58.60;3.30;;;13.80;1.00;;;;;;5014007;28;20500;-68
2021/06/14 03:57:42;;;;;;;58.17;2.60;;;13.70;1.00;;;;;;5013732;28;20445;-67
2021/06/14 04:00:13;;;;;;;59.07;3.60;;;13.70;1.00;;;;;;5013871;28;20458;-68
2021/06/14 04:02:41;;;;;;;58.17;2.50;;;13.80;1.00;;;;;;5014060;28;20576;-68
2021/06/14 04:05:11;;;;;;;58.20;2.60;;;13.80;1.00;;;;;;5013831;28;20540;-67
2021/06/14 04:07:38;;;;;;;57.67;2.43;;;13.80;1.00;;;;;;5013372;28;20970;-68
2021/06/14 04:10:06;;;;;;;58.40;2.73;;;13.80;1.00;;;;;;5013738;28;20478;-68
2021/06/14 04:12:34;;;;;;;58.57;2.70;;;13.90;1.00;;;;;;5013920;28;20569;-68
2021/06/14 04:15:01;;;;;;;58.10;2.63;;;13.90;1.00;;;;;;5013989;28;20461;-68
2021/06/14 04:17:29;;;;;;;58.30;2.70;;;13.80;1.00;;;;;;5013485;28;20963;-68
2021/06/14 04:19:56;;;;;;;58.50;3.00;;;13.80;1.00;;;;;;5013375;28;20985;-69
2021/06/14 04:22:23;;;;;;;58.50;2.70;;;13.80;1.00;;;;;;5013486;28;20536;-68
2021/06/14 04:24:50;;;;;;;58.23;2.70;;;13.80;1.00;;;;;;5013613;28;20442;-68
2021/06/14 04:27:17;;;;;;;58.27;2.47;;;13.70;1.00;;;;;;5013698;28;20588;-69
2021/06/14 04:29:44;;;;;;;57.97;2.60;;;13.70;1.00;;;;;;5013413;28;20465;-67
2021/06/14 04:32:11;;;;;;;58.27;2.90;;;13.70;1.00;;;;;;5013518;28;20446;-68
2021/06/14 04:34:39;;;;;;;58.50;2.80;;;13.80;1.00;;;;;;5013408;28;20438;-68
2021/06/14 04:37:06;;;;;;;58.47;2.40;;;13.70;1.00;;;;;;5013293;28;20449;-68
2021/06/14 04:39:33;;;;;;;58.30;2.60;;;13.70;1.00;;;;;;5013007;28;20548;-68
2021/06/14 04:42:00;;;;;;;58.47;2.90;;;13.80;1.00;;;;;;5013385;28;20442;-68
2021/06/14 04:44:27;;;;;;;58.50;2.87;;;13.80;1.00;;;;;;5013426;28;20917;-68
2021/06/14 04:46:54;;;;;;;58.20;2.50;;;13.90;1.00;;;;;;5013170;28;20497;-69
2021/06/14 04:49:21;;;;;;;57.97;2.40;;;13.90;1.00;;;;;;5013002;28;20819;-68
2021/06/14 04:51:49;;;;;;;58.30;2.50;;;14.00;1.00;;;;;;5013059;28;20537;-69
2021/06/14 04:54:16;;;;;;;58.50;2.80;;;14.00;1.00;;;;;;5013278;28;20449;-68
2021/06/14 04:56:43;;;;;;;58.20;3.00;;;14.00;1.00;;;;;;5012923;28;20889;-69
2021/06/14 04:59:09;;;;;;;57.87;2.87;;;14.10;1.00;;;;;;5012861;28;20697;-67
2021/06/14 05:01:36;;;;;;;58.17;2.90;;;14.10;1.00;;;;;;5013159;28;20533;-69
2021/06/14 05:04:03;;;;;;;58.07;2.50;;;14.20;1.00;;;;;;5012732;28;20486;-68
2021/06/14 05:06:30;;;;;;;58.10;2.70;;;14.20;1.00;;;;;;5012450;28;20967;-69
2021/06/14 05:08:59;;;;;;;59.03;3.13;;;14.30;1.00;;;;;;5013004;28;20472;-68
2021/06/14 05:11:26;;;;;;;58.07;2.53;;;14.30;1.00;;;;;;5012907;28;21001;-69
2021/06/14 05:13:53;;;;;;;58.17;2.60;;;14.30;1.00;;;;;;5012965;28;20533;-69
2021/06/14 05:16:19;;;;;;;57.80;2.60;;;14.40;1.00;;;;;;5012567;28;20458;-68
2021/06/14 05:18:46;;;;;;;57.77;2.53;;;14.40;1.00;;;;;;5011810;28;20557;-66
2021/06/14 05:21:13;;;;;;;57.93;2.50;;;14.50;1.00;;;;;;5012397;28;20480;-66
2021/06/14 05:23:40;;;;;;;57.97;2.60;;;14.60;1.00;;;;;;5026345;28;20912;-64
2021/06/14 05:26:08;;;;;;;58.40;2.63;;;14.60;1.00;;;;;;4992264;28;20450;-66
2021/06/14 05:28:35;;;;;;;58.20;2.60;;;14.60;1.00;;;;;;4991707;28;20477;-67
2021/06/14 05:31:02;;;;;;;58.70;2.93;;;14.50;1.00;;;;;;4991836;28;21026;-67
2021/06/14 05:33:29;;;;;;;57.77;2.60;;;14.30;1.00;;;;;;4992225;28;20962;-67
2021/06/14 05:35:56;;;;;;;58.17;2.40;;;14.20;1.00;;;;;;4992732;28;20459;-66
2021/06/14 05:38:23;;;;;;;58.40;3.00;;;14.20;1.00;;;;;;4992546;28;20860;-68
2021/06/14 05:40:50;;;;;;;57.97;2.50;;;14.10;1.00;;;;;;4992627;28;21142;-68
2021/06/14 05:43:18;;;;;;;58.37;2.80;;;14.10;1.00;;;;;;4992593;28;21108;-66
2021/06/14 05:45:45;;;;;;;58.27;3.00;;;14.10;1.00;;;;;;4992800;28;20876;-67
2021/06/14 05:48:12;;;;;;;58.20;3.03;;;14.10;1.00;;;;;;4992096;28;20525;-68
2021/06/14 05:50:39;;;;;;;58.23;2.60;;;14.10;1.00;;;;;;4992968;28;20453;-67
2021/06/14 05:53:06;;;;;;;58.20;2.67;;;14.10;1.00;;;;;;4992754;28;20541;-68
2021/06/14 05:55:33;;;;;;;58.33;2.60;;;14.20;1.00;;;;;;4992501;28;20534;-66
2021/06/14 05:58:00;;;;;;;57.97;2.60;;;14.20;1.00;;;;;;4992125;28;20554;-67
2021/06/14 06:00:28;;;;;;;58.40;2.90;;;14.30;1.00;;;;;;4992302;28;20463;-67
2021/06/14 06:02:55;;;;;;;58.17;2.50;;;14.30;1.00;;;;;;4992345;28;20446;-67
2021/06/14 06:05:22;;;;;;;57.83;2.50;;;14.40;1.00;;;;;;4992676;28;20541;-68
2021/06/14 06:07:49;;;;;;;58.13;2.47;;;14.50;1.00;;;;;;4992284;28;20450;-67
2021/06/14 06:10:16;;;;;;;57.83;2.53;;;14.60;1.00;;;;;;4992389;28;20618;-67
2021/06/14 06:12:43;;;;;;;58.20;2.63;;;14.70;1.00;;;;;;4992501;28;20534;-67
2021/06/14 06:15:13;;;;;;;57.83;2.47;;;14.70;1.00;;;;;;4992298;28;20449;-68
2021/06/14 06:17:41;;;;;;;58.27;2.50;;;14.90;1.00;;;;;;4992134;28;20537;-67
2021/06/14 06:20:10;;;;;;;58.03;2.50;;;15.00;1.00;;;;;;4992444;28;20447;-67
2021/06/14 06:22:37;;;;;;;58.07;2.70;;;15.20;1.00;;;;;;4992344;28;20449;-66
2021/06/14 06:25:05;;;;;;;58.17;2.80;;;15.30;1.00;;;;;;4992222;28;20578;-67
2021/06/14 06:27:32;;;;;;;58.23;3.20;;;15.40;1.00;;;;;;4992059;28;20642;-68
2021/06/14 06:29:59;;;;;;;58.10;2.70;;;15.50;1.00;;;;;;4994454;28;20473;-66
2021/06/14 06:32:26;;;;;;;58.07;2.37;;;15.60;1.00;;;;;;4996228;28;20883;-68
2021/06/14 06:34:54;;;;;;;57.87;2.30;;;15.80;1.00;;;;;;4996011;28;20939;-67
2021/06/14 06:37:21;;;;;;;57.87;2.33;;;15.80;1.00;;;;;;4995730;28;21030;-67
2021/06/14 06:39:48;;;;;;;57.53;2.73;;;15.90;1.00;;;;;;4995829;28;20846;-66
2021/06/14 06:42:15;;;;;;;58.20;2.70;;;16.10;1.00;;;;;;4995825;28;20458;-68
2021/06/14 06:44:42;;;;;;;58.13;2.50;;;16.20;1.00;;;;;;4995566;28;20492;-67
2021/06/14 06:47:08;;;;;;;57.83;2.40;;;16.30;1.00;;;;;;4995701;28;20899;-67
2021/06/14 06:49:36;;;;;;;58.00;2.80;;;16.50;1.00;;;;;;4995595;28;21040;-68
2021/06/14 06:52:05;;;;;;;58.20;2.40;;;16.60;1.00;;;;;;4995887;28;20448;-68
2021/06/14 06:54:31;;;;;;;59.17;2.50;;;16.70;1.00;;;;;;4995685;28;20447;-67
2021/06/14 06:56:58;;;;;;;58.40;2.97;;;16.80;1.00;;;;;;4995238;28;20982;-67
2021/06/14 06:59:26;;;;;;;58.40;3.00;;;16.90;1.00;;;;;;4995566;28;20501;-67
2021/06/14 07:01:53;;;;;;;57.97;2.90;;;17.00;1.00;;;;;;4995860;28;20488;-67
2021/06/14 07:04:20;;;;;;;58.17;3.30;;;17.10;1.00;;;;;;4995362;28;21036;-67
2021/06/14 07:06:47;;;;;;;57.57;2.60;;;17.20;1.00;;;;;;4995099;28;20453;-67
2021/06/14 07:09:15;;;;;;;57.93;2.60;;;17.30;1.00;;;;;;4995450;28;20566;-68
2021/06/14 07:11:43;;;;;;;57.87;2.40;;;17.40;1.00;;;;;;4995198;28;20499;-67
2021/06/14 07:14:10;;;;;;;58.70;2.40;;;17.50;1.00;;;;;;4995337;28;20528;-68
2021/06/14 07:16:38;;;;;;;58.27;2.60;;;17.60;1.00;;;;;;4995318;28;20459;-67
2021/06/14 07:19:05;;;;;;;57.87;2.40;;;17.70;1.00;;;;;;4995125;28;20482;-67
2021/06/14 07:21:32;;;;;;;58.50;3.00;;;17.90;1.00;;;;;;4995262;28;20500;-68
2021/06/14 07:24:00;;;;;;;57.93;2.77;;;18.00;1.00;;;;;;4995171;28;20496;-67
2021/06/14 07:26:29;;;;;;;57.97;2.37;;;18.10;1.00;;;;;;4994800;28;20973;-66
2021/06/14 07:28:56;;;;;;;57.97;2.30;;;18.30;1.00;;;;;;4995122;28;20912;-67
2021/06/14 07:31:23;;;;;;;60.30;2.60;;;18.40;1.00;;;;;;4994890;28;21021;-67
2021/06/14 07:33:50;;;;;;;58.70;3.43;;;18.50;1.00;;;;;;4994916;28;20454;-68
2021/06/14 07:36:18;;;;;;;58.27;2.70;;;18.60;1.00;;;;;;4994730;28;20533;-67
2021/06/14 07:38:45;;;;;;;57.57;2.10;;;18.70;1.00;;;;;;4994691;28;20560;-68
2021/06/14 07:41:12;;;;;;;58.17;2.93;;;18.80;1.00;;;;;;4994272;28;20545;-67
2021/06/14 07:43:40;;;;;;;58.57;3.13;;;18.90;1.00;;;;;;4994573;28;20932;-68
2021/06/14 07:46:07;;;;;;;57.57;2.50;;;19.00;1.00;;;;;;4994490;28;21015;-68
2021/06/14 07:48:35;;;;;;;58.20;2.30;;;19.10;1.00;;;;;;4994573;28;20561;-67
2021/06/14 07:51:03;;;;;;;57.90;2.60;;;19.20;1.00;;;;;;4994446;28;20461;-67
2021/06/14 07:53:30;;;;;;;57.83;2.80;;;19.20;1.00;;;;;;4994535;28;20456;-68
2021/06/14 07:55:58;;;;;;;58.57;2.93;;;19.30;1.00;;;;;;4994824;28;20807;-68
2021/06/14 07:58:25;;;;;;;58.17;3.90;;;19.40;1.00;;;;;;4994021;28;20979;-68
2021/06/14 08:00:54;;;;;;;58.23;2.30;;;19.50;1.00;;;;;;4994699;28;20537;-67
2021/06/14 08:03:23;;;;;;;57.90;2.70;;;19.60;1.00;;;;;;4994371;28;20546;-67
2021/06/14 08:05:50;;;;;;;57.83;2.87;;;19.70;1.00;;;;;;4994163;28;20490;-68
2021/06/14 08:08:17;;;;;;;58.07;2.50;;;19.80;1.00;;;;;;4994198;28;20561;-68
2021/06/14 08:10:46;;;;;;;58.10;2.60;;;19.90;1.00;;;;;;4994399;28;20483;-68
2021/06/14 08:13:13;;;;;;;58.60;2.80;;;20.10;1.00;;;;;;4994292;28;20457;-68
2021/06/14 08:15:41;;;;;;;58.00;2.30;;;20.20;1.00;;;;;;4994143;28;20439;-67
2021/06/14 08:18:19;;;;;;;57.87;2.30;;;20.30;1.00;;;;;;4993748;28;20558;-66
2021/06/14 08:20:59;;;;;;;57.80;2.40;;;20.40;1.00;;;;;;4994254;28;20865;-68
2021/06/14 08:26:10;;;;;;;60.00;2.77;;;20.70;1.00;;;;;;4993795;28;20655;-67
2021/06/14 08:28:37;;;;;;;57.97;2.40;;;20.70;1.00;;;;;;4993763;28;20569;-68
2021/06/14 08:31:04;;;;;;;60.20;4.30;;;20.80;1.00;;;;;;4994010;28;20453;-68
2021/06/14 08:33:33;;;;;;;58.30;2.60;;;20.90;1.00;;;;;;5006788;28;20481;-67
2021/06/14 08:36:00;;;;;;;57.83;2.50;;;21.00;1.00;;;;;;5013009;28;20942;-67
2021/06/14 08:38:27;;;;;;;57.97;2.40;;;21.10;1.00;;;;;;5012998;28;20474;-68
2021/06/14 08:40:54;;;;;;;60.30;4.50;;;21.30;1.00;;;;;;5013081;28;20533;-67
2021/06/14 08:43:21;;;;;;;58.00;2.20;;;21.40;1.00;;;;;;5011373;28;20450;-67
2021/06/14 08:45:51;;;;;;;58.10;2.87;;;21.60;1.00;;;;;;5011996;28;20482;-68
2021/06/14 08:48:18;;;;;;;58.67;2.67;;;21.70;1.00;;;;;;5012812;28;20518;-68
2021/06/14 08:50:47;;;;;;;57.87;2.60;;;21.80;1.00;;;;;;5011574;28;20483;-68
2021/06/14 08:53:13;;;;;;;58.37;2.80;;;22.00;1.00;;;;;;5011992;28;20459;-68
2021/06/14 08:55:40;;;;;;;58.00;2.30;;;22.00;1.00;;;;;;5012896;28;20448;-68
2021/06/14 08:58:08;;;;;;;58.20;2.40;;;22.10;1.00;;;;;;5012924;28;20476;-67
2021/06/14 09:00:36;;;;;;;58.10;2.40;;;22.20;1.00;;;;;;5012781;28;20471;-68
2021/06/14 09:03:04;;;;;;;57.97;2.60;;;22.30;1.00;;;;;;5013127;28;20882;-68
2021/06/14 09:05:31;;;;;;;58.17;2.50;;;22.40;1.00;;;;;;5013416;28;20588;-68
2021/06/14 09:08:06;;;;;;;58.07;2.50;;;22.50;1.00;;;;;;5012438;28;21023;-68
2021/06/14 09:10:36;;;;;;;58.37;2.70;;;22.60;1.00;;;;;;5012517;28;20469;-68
2021/06/14 09:13:14;;;;;;;58.00;2.20;;;22.70;1.00;;;;;;5012721;28;20544;-68
2021/06/14 09:15:43;;;;;;;58.03;2.70;;;22.90;1.00;;;;;;5012711;28;20456;-68
2021/06/14 09:18:22;;;;;;;57.97;2.60;;;23.00;1.00;;;;;;5012328;28;20512;-67
2021/06/14 09:20:58;;;;;;;57.90;2.30;;;23.20;1.00;;;;;;5010373;28;20454;-68
2021/06/14 09:23:38;;;;;;;57.77;2.17;;;23.30;1.00;;;;;;4998187;28;20544;-68
2021/06/14 09:26:05;;;;;;;57.97;2.30;;;23.30;1.00;;;;;;4992691;28;20501;-68
2021/06/14 09:28:32;;;;;;;58.87;2.40;;;23.40;1.00;;;;;;4992529;28;20525;-67
2021/06/14 09:30:59;;;;;;;58.20;2.37;;;23.50;1.00;;;;;;4992624;28;20534;-67
2021/06/14 09:33:27;;;;;;;58.10;2.67;;;23.70;1.00;;;;;;4993209;28;20457;-67
2021/06/14 09:36:06;;;;;;;58.10;2.40;;;23.80;1.00;;;;;;4992745;28;20479;-68
2021/06/14 09:38:34;;;;;;;58.10;2.50;;;23.90;1.00;;;;;;4992761;28;20909;-68
2021/06/14 09:41:01;;;;;;;58.20;2.80;;;24.00;1.00;;;;;;4992699;28;20450;-69
2021/06/14 09:43:30;;;;;;;57.90;2.33;;;24.10;1.00;;;;;;4992654;28;20966;-67
2021/06/14 09:45:58;;;;;;;58.00;2.57;;;24.20;1.00;;;;;;4992329;28;20859;-67
2021/06/14 09:48:27;;;;;;;57.97;2.33;;;24.30;1.00;;;;;;4992404;28;20471;-68
2021/06/14 09:50:56;;;;;;;58.33;2.73;;;24.40;1.00;;;;;;4993513;28;20460;-67
2021/06/14 09:53:26;;;;;;;57.83;2.10;;;24.40;1.00;;;;;;5014047;28;20453;-68
2021/06/14 09:55:54;;;;;;;57.90;2.30;;;24.40;1.00;;;;;;5010898;28;20961;-67
2021/06/14 09:58:23;;;;;;;57.67;2.33;;;24.50;1.00;;;;;;5011148;28;21014;-67
2021/06/14 10:00:55;;;;;;;57.77;2.27;;;24.70;1.00;;;;;;5012231;28;20479;-68
2021/06/14 10:03:25;;;;;;;57.77;2.33;;;24.90;1.00;;;;;;5011982;28;20446;-68
2021/06/14 10:05:53;;;;;;;57.87;2.63;;;25.20;1.00;;;;;;5015929;28;20916;-67
2021/06/14 10:08:25;;;;;;;57.77;2.23;;;25.40;1.00;;;;;;5015660;28;20973;-68
2021/06/14 10:11:09;;;;;;;57.77;2.20;;;25.40;1.00;;;;;;5015782;28;20450;-67
2021/06/14 10:13:38;;;;;;;58.30;2.80;;;25.50;1.00;;;;;;5016270;28;20842;-68
2021/06/14 10:16:07;;;;;;;57.70;2.37;;;25.70;1.00;;;;;;5015985;28;20495;-67
2021/06/14 10:18:37;;;;;;;58.07;2.90;;;26.00;1.00;;;;;;5015738;28;20477;-68
2021/06/14 10:21:07;;;;;;;57.73;2.10;;;26.30;1.00;;;;;;5015826;28;20533;-68
2021/06/14 10:23:34;;;;;;;57.77;2.30;;;26.70;1.00;;;;;;5015961;28;20447;-68
2021/06/14 10:26:02;;;;;;;57.70;2.10;;;27.70;1.00;;;;;;5015434;28;20862;-68
2021/06/14 10:28:30;;;;;;;57.90;2.40;;;29.00;1.00;;;;;;4999266;28;20475;-68
2021/06/14 10:30:58;;;;;;;57.53;2.40;;;30.10;1.00;;;;;;4995889;28;20486;-67
2021/06/14 10:33:26;;;;;;;57.70;2.10;;;31.00;1.00;;;;;;4995981;28;20995;-66
2021/06/14 10:35:55;;;;;;;57.90;2.60;;;31.90;1.00;;;;;;4995903;28;20612;-67
2021/06/14 10:38:23;;;;;;;58.30;2.40;;;32.80;1.00;;;;;;4995760;28;20502;-67
2021/06/14 10:40:52;;;;;;;57.70;2.10;;;33.40;1.00;;;;;;4996107;28;20530;-67
2021/06/14 10:43:28;;;;;;;57.37;2.00;;;33.60;1.00;;;;;;4995980;28;20466;-67
2021/06/14 10:45:57;;;;;;;57.27;2.17;;;34.00;1.00;;;;;;4995768;28;20540;-68
2021/06/14 10:48:30;;;;;;;57.17;1.80;;;34.50;1.00;;;;;;4995345;28;20474;-68
2021/06/14 10:50:59;;;;;;;57.10;2.30;;;34.70;1.00;;;;;;4995876;28;20546;-68
2021/06/14 10:53:28;;;;;;;57.90;2.33;;;35.00;1.00;;;;;;4995573;28;20537;-68
2021/06/14 10:55:55;;;;;;;57.07;2.30;;;35.40;1.00;;;;;;4995643;28;20513;-67
2021/06/14 10:58:27;;;;;;;58.07;2.73;;;35.70;1.00;;;;;;4996305;28;20470;-67
2021/06/14 11:01:03;;;;;;;57.07;2.40;;;36.00;1.00;;;;;;5014849;28;20885;-68
2021/06/14 11:03:48;;;;;;;57.03;2.40;;;36.10;1.00;;;;;;5015097;28;20744;-68
2021/06/14 11:06:16;;;;;;;57.00;2.00;;;36.50;1.00;;;;;;5014610;28;20516;-67
2021/06/14 11:08:44;;;;;;;57.30;2.10;;;36.80;1.00;;;;;;5014811;28;20553;-68
2021/06/14 11:11:12;;;;;;;56.87;2.30;;;37.10;1.00;;;;;;5014586;28;20460;-68
2021/06/14 11:13:49;;;;;;;56.87;2.10;;;37.50;1.00;;;;;;5015052;28;20540;-69
2021/06/14 11:16:17;;;;;;;57.20;2.70;;;37.80;1.00;;;;;;5013761;28;20445;-68
2021/06/14 11:18:44;;;;;;;56.63;1.80;;;37.70;1.00;;;;;;5014784;28;20901;-68
2021/06/14 11:21:13;;;;;;;56.80;1.87;;;37.70;1.00;;;;;;5014722;28;20485;-68
2021/06/14 11:23:41;;;;;;;56.87;2.00;;;37.50;1.00;;;;;;5014468;28;20485;-68
2021/06/14 11:26:10;;;;;;;56.90;2.07;;;37.60;1.00;;;;;;5014404;28;20484;-67
2021/06/14 11:28:39;;;;;;;56.97;2.20;;;37.50;1.00;;;;;;5014657;28;20465;-69
2021/06/14 11:31:16;;;;;;;56.97;2.37;;;37.50;1.00;;;;;;5013062;28;20458;-68
2021/06/14 11:33:44;;;;;;;56.70;2.00;;;37.70;1.00;;;;;;4995778;28;20454;-69
2021/06/14 11:36:17;;;;;;;57.10;2.13;;;38.20;1.00;;;;;;4994521;28;20475;-68
2021/06/14 11:38:44;;;;;;;56.87;1.90;;;38.80;1.00;;;;;;4994874;28;20473;-67
2021/06/14 11:41:12;;;;;;;56.67;1.80;;;38.80;1.00;;;;;;4994544;28;20482;-67
2021/06/14 11:43:38;;;;;;;56.80;2.10;;;38.80;1.00;;;;;;4994628;28;20486;-68
2021/06/14 11:46:22;;;;;;;58.50;2.17;;;38.50;1.00;;;;;;4994495;28;20483;-68
2021/06/14 11:48:51;;;;;;;56.97;2.03;;;38.50;1.00;;;;;;4994396;28;20545;-67
2021/06/14 11:51:19;;;;;;;56.53;1.97;;;38.70;1.00;;;;;;4995233;28;20454;-68
2021/06/14 11:53:53;;;;;;;57.27;2.30;;;38.90;1.00;;;;;;4994792;28;20805;-67
2021/06/14 11:56:21;;;;;;;57.47;2.50;;;39.00;1.00;;;;;;4994461;28;20837;-68
2021/06/14 11:58:48;;;;;;;56.77;2.13;;;39.50;1.00;;;;;;4994145;28;20573;-67
2021/06/14 12:01:15;;;;;;;57.63;2.00;;;39.60;1.00;;;;;;5001929;28;20830;-68
2021/06/14 12:03:44;;;;;;;56.60;1.87;;;39.20;1.00;;;;;;5003045;28;20487;-68
2021/06/14 12:06:10;;;;;;;56.70;2.20;;;39.30;1.00;;;;;;4994362;28;20541;-67
2021/06/14 12:08:37;;;;;;;56.70;1.97;;;39.70;1.00;;;;;;4994200;28;20471;-67
2021/06/14 12:11:09;;;;;;;56.63;2.00;;;40.20;1.00;;;;;;4994256;28;20529;-67
2021/06/14 12:13:37;;;;;;;58.67;2.27;;;40.70;1.00;;;;;;4994069;28;20458;-67
2021/06/14 12:16:04;;;;;;;56.80;2.20;;;41.00;1.00;;;;;;4994088;28;20459;-67
2021/06/14 12:18:31;;;;;;;58.53;4.37;;;40.50;1.00;;;;;;4994161;28;20467;-68
2021/06/14 12:21:03;;;;;;;57.47;2.63;;;39.70;1.00;;;;;;4994127;28;20451;-67
2021/06/14 12:23:35;;;;;;;57.00;2.07;;;39.10;1.00;;;;;;4993948;28;20542;-67
2021/06/14 12:26:07;;;;;;;56.97;2.13;;;39.10;1.00;;;;;;4993599;28;20514;-67
2021/06/14 12:28:36;;;;;;;56.60;1.80;;;39.60;1.00;;;;;;4993576;28;20557;-68
2021/06/14 12:31:08;;;;;;;56.50;1.90;;;40.20;1.00;;;;;;4993876;28;20541;-66
2021/06/14 12:33:37;;;;;;;57.00;2.20;;;40.90;1.00;;;;;;4993147;28;20446;-67
2021/06/14 12:36:07;;;;;;;57.77;2.20;;;41.50;1.00;;;;;;5013080;28;20442;-68
2021/06/14 12:38:34;;;;;;;56.40;2.17;;;41.30;1.00;;;;;;5012904;28;20985;-68
2021/06/14 12:41:03;;;;;;;56.47;2.30;;;41.40;1.00;;;;;;5013392;28;20442;-67
2021/06/14 12:43:31;;;;;;;56.77;2.30;;;41.70;1.00;;;;;;5013508;28;20452;-68
2021/06/14 12:45:58;;;;;;;57.00;2.40;;;41.80;1.00;;;;;;5013200;28;20488;-68
2021/06/14 12:48:25;;;;;;;56.40;2.50;;;41.80;1.00;;;;;;5012837;28;20478;-67
2021/06/14 12:50:54;;;;;;;56.87;2.30;;;41.60;1.00;;;;;;5013032;28;20492;-68
2021/06/14 12:53:24;;;;;;;56.83;2.30;;;41.70;1.00;;;;;;5012919;28;20450;-67
2021/06/14 12:55:52;;;;;;;57.10;2.50;;;41.90;1.00;;;;;;5012876;28;20573;-67
2021/06/14 12:58:21;;;;;;;56.57;2.30;;;41.90;1.00;;;;;;5012595;28;20474;-67